sensor_id;sensor_type;location;lat;lon;timestamp;P1;durP1;ratioP1;P2;durP2;ratioP2
20454;SDS011;10386;54.314;10.022;2022-08-19T00:01:48;31.00;;;13.52;;
20454;SDS011;10386;54.314;10.022;2022-08-19T00:04:23;33.28;;;15.43;;
20454;SDS011;10386;54.314;10.022;2022-08-19T00:06:53;31.50;;;15.00;;
20454;SDS011;10386;54.314;10.022;2022-08-19T00:09:21;34.30;;;15.30;;
20454;SDS011;10386;54.314;10.022;2022-08-19T00:11:51;31.85;;;14.95;;
20454;SDS011;10386;54.314;10.022;2022-08-19T00:14:19;32.13;;;14.45;;
20454;SDS011;10386;54.314;10.022;2022-08-19T00:16:47;32.78;;;14.82;;
20454;SDS011;10386;54.314;10.022;2022-08-19T00:19:15;28.80;;;15.43;;
20454;SDS011;10386;54.314;10.022;2022-08-19T00:21:42;30.55;;;15.00;;
20454;SDS011;10386;54.314;10.022;2022-08-19T00:24:10;29.80;;;15.45;;
20454;SDS011;10386;54.314;10.022;2022-08-19T00:26:38;34.63;;;16.10;;
20454;SDS011;10386;54.314;10.022;2022-08-19T00:29:06;29.90;;;15.27;;
20454;SDS011;10386;54.314;10.022;2022-08-19T00:31:34;37.67;;;15.32;;
20454;SDS011;10386;54.314;10.022;2022-08-19T00:34:02;36.35;;;15.25;;
20454;SDS011;10386;54.314;10.022;2022-08-19T00:36:29;28.43;;;14.83;;
20454;SDS011;10386;54.314;10.022;2022-08-19T00:38:58;36.92;;;14.95;;
20454;SDS011;10386;54.314;10.022;2022-08-19T00:41:25;32.03;;;14.55;;
20454;SDS011;10386;54.314;10.022;2022-08-19T00:44:27;32.67;;;15.52;;
20454;SDS011;10386;54.314;10.022;2022-08-19T00:46:53;31.30;;;14.90;;
20454;SDS011;10386;54.314;10.022;2022-08-19T00:49:37;31.60;;;15.60;;
20454;SDS011;10386;54.314;10.022;2022-08-19T00:52:08;37.78;;;15.63;;
20454;SDS011;10386;54.314;10.022;2022-08-19T00:54:40;29.70;;;15.25;;
20454;SDS011;10386;54.314;10.022;2022-08-19T00:57:09;31.73;;;15.07;;
20454;SDS011;10386;54.314;10.022;2022-08-19T00:59:42;42.20;;;15.32;;
20454;SDS011;10386;54.314;10.022;2022-08-19T01:02:28;30.20;;;14.93;;
20454;SDS011;10386;54.314;10.022;2022-08-19T01:04:56;42.63;;;16.55;;
20454;SDS011;10386;54.314;10.022;2022-08-19T01:07:23;36.33;;;15.52;;
20454;SDS011;10386;54.314;10.022;2022-08-19T01:09:51;34.08;;;15.60;;
20454;SDS011;10386;54.314;10.022;2022-08-19T01:12:18;42.38;;;15.77;;
20454;SDS011;10386;54.314;10.022;2022-08-19T01:14:45;44.42;;;16.33;;
20454;SDS011;10386;54.314;10.022;2022-08-19T01:17:13;34.75;;;16.50;;
20454;SDS011;10386;54.314;10.022;2022-08-19T01:19:43;45.90;;;16.08;;
20454;SDS011;10386;54.314;10.022;2022-08-19T01:22:18;40.15;;;16.30;;
20454;SDS011;10386;54.314;10.022;2022-08-19T01:24:59;36.55;;;16.08;;
20454;SDS011;10386;54.314;10.022;2022-08-19T01:27:26;43.60;;;16.92;;
20454;SDS011;10386;54.314;10.022;2022-08-19T01:30:08;33.20;;;17.17;;
20454;SDS011;10386;54.314;10.022;2022-08-19T01:32:37;36.35;;;16.67;;
20454;SDS011;10386;54.314;10.022;2022-08-19T01:35:04;38.10;;;15.77;;
20454;SDS011;10386;54.314;10.022;2022-08-19T01:37:41;37.37;;;16.63;;
20454;SDS011;10386;54.314;10.022;2022-08-19T01:40:10;53.57;;;16.23;;
20454;SDS011;10386;54.314;10.022;2022-08-19T01:42:37;38.92;;;16.25;;
20454;SDS011;10386;54.314;10.022;2022-08-19T01:45:05;38.22;;;15.85;;
20454;SDS011;10386;54.314;10.022;2022-08-19T01:47:37;34.80;;;16.77;;
20454;SDS011;10386;54.314;10.022;2022-08-19T01:50:04;36.50;;;17.00;;
20454;SDS011;10386;54.314;10.022;2022-08-19T01:52:36;37.00;;;16.80;;
20454;SDS011;10386;54.314;10.022;2022-08-19T01:55:04;40.42;;;17.63;;
20454;SDS011;10386;54.314;10.022;2022-08-19T01:57:33;40.27;;;17.37;;
20454;SDS011;10386;54.314;10.022;2022-08-19T02:00:02;43.03;;;18.63;;
20454;SDS011;10386;54.314;10.022;2022-08-19T02:02:32;46.07;;;17.43;;
20454;SDS011;10386;54.314;10.022;2022-08-19T02:04:59;45.27;;;17.63;;
20454;SDS011;10386;54.314;10.022;2022-08-19T02:07:26;39.77;;;18.10;;
20454;SDS011;10386;54.314;10.022;2022-08-19T02:09:54;45.65;;;17.95;;
20454;SDS011;10386;54.314;10.022;2022-08-19T02:12:21;40.53;;;17.80;;
20454;SDS011;10386;54.314;10.022;2022-08-19T02:14:48;51.10;;;18.10;;
20454;SDS011;10386;54.314;10.022;2022-08-19T02:17:15;49.53;;;18.73;;
20454;SDS011;10386;54.314;10.022;2022-08-19T02:19:42;46.67;;;18.13;;
20454;SDS011;10386;54.314;10.022;2022-08-19T02:22:09;45.63;;;18.63;;
20454;SDS011;10386;54.314;10.022;2022-08-19T02:24:35;51.53;;;18.73;;
20454;SDS011;10386;54.314;10.022;2022-08-19T02:27:02;43.03;;;18.47;;
20454;SDS011;10386;54.314;10.022;2022-08-19T02:29:29;38.83;;;17.47;;
20454;SDS011;10386;54.314;10.022;2022-08-19T02:31:56;48.77;;;19.37;;
20454;SDS011;10386;54.314;10.022;2022-08-19T02:34:23;50.13;;;18.37;;
20454;SDS011;10386;54.314;10.022;2022-08-19T02:36:51;43.37;;;18.13;;
20454;SDS011;10386;54.314;10.022;2022-08-19T02:39:18;49.47;;;18.60;;
20454;SDS011;10386;54.314;10.022;2022-08-19T02:41:45;41.53;;;18.60;;
20454;SDS011;10386;54.314;10.022;2022-08-19T02:44:12;48.40;;;18.40;;
20454;SDS011;10386;54.314;10.022;2022-08-19T02:46:56;47.80;;;18.00;;
20454;SDS011;10386;54.314;10.022;2022-08-19T02:49:23;46.70;;;18.70;;
20454;SDS011;10386;54.314;10.022;2022-08-19T02:54:32;50.37;;;18.77;;
20454;SDS011;10386;54.314;10.022;2022-08-19T02:56:59;46.17;;;18.40;;
20454;SDS011;10386;54.314;10.022;2022-08-19T02:59:29;50.93;;;20.27;;
20454;SDS011;10386;54.314;10.022;2022-08-19T03:01:56;59.53;;;19.97;;
20454;SDS011;10386;54.314;10.022;2022-08-19T03:04:23;45.80;;;18.50;;
20454;SDS011;10386;54.314;10.022;2022-08-19T03:06:50;50.80;;;20.37;;
20454;SDS011;10386;54.314;10.022;2022-08-19T03:09:18;41.80;;;19.10;;
20454;SDS011;10386;54.314;10.022;2022-08-19T03:11:46;56.10;;;19.83;;
20454;SDS011;10386;54.314;10.022;2022-08-19T03:14:18;49.87;;;20.00;;
20454;SDS011;10386;54.314;10.022;2022-08-19T03:16:45;50.47;;;20.80;;
20454;SDS011;10386;54.314;10.022;2022-08-19T03:19:15;50.03;;;20.07;;
20454;SDS011;10386;54.314;10.022;2022-08-19T03:21:44;54.13;;;19.43;;
20454;SDS011;10386;54.314;10.022;2022-08-19T03:24:11;47.87;;;19.43;;
20454;SDS011;10386;54.314;10.022;2022-08-19T03:26:40;51.80;;;20.67;;
20454;SDS011;10386;54.314;10.022;2022-08-19T03:29:11;43.70;;;18.87;;
20454;SDS011;10386;54.314;10.022;2022-08-19T03:31:39;54.83;;;20.93;;
20454;SDS011;10386;54.314;10.022;2022-08-19T03:34:19;55.17;;;22.63;;
20454;SDS011;10386;54.314;10.022;2022-08-19T03:36:58;56.00;;;20.87;;
20454;SDS011;10386;54.314;10.022;2022-08-19T03:39:29;53.40;;;20.30;;
20454;SDS011;10386;54.314;10.022;2022-08-19T03:41:57;47.23;;;20.23;;
20454;SDS011;10386;54.314;10.022;2022-08-19T03:44:46;52.17;;;20.77;;
20454;SDS011;10386;54.314;10.022;2022-08-19T03:47:13;58.90;;;21.90;;
20454;SDS011;10386;54.314;10.022;2022-08-19T03:49:43;46.13;;;19.58;;
20454;SDS011;10386;54.314;10.022;2022-08-19T03:52:09;53.40;;;20.40;;
20454;SDS011;10386;54.314;10.022;2022-08-19T03:54:36;49.42;;;20.20;;
20454;SDS011;10386;54.314;10.022;2022-08-19T03:57:04;52.23;;;20.77;;
20454;SDS011;10386;54.314;10.022;2022-08-19T03:59:33;53.47;;;20.73;;
20454;SDS011;10386;54.314;10.022;2022-08-19T04:02:02;53.50;;;20.23;;
20454;SDS011;10386;54.314;10.022;2022-08-19T04:04:36;51.57;;;21.47;;
20454;SDS011;10386;54.314;10.022;2022-08-19T04:07:05;54.63;;;20.95;;
20454;SDS011;10386;54.314;10.022;2022-08-19T04:09:33;47.20;;;19.67;;
20454;SDS011;10386;54.314;10.022;2022-08-19T04:12:00;44.07;;;20.33;;
20454;SDS011;10386;54.314;10.022;2022-08-19T04:14:28;51.40;;;20.77;;
20454;SDS011;10386;54.314;10.022;2022-08-19T04:17:00;43.07;;;18.43;;
20454;SDS011;10386;54.314;10.022;2022-08-19T04:19:31;49.63;;;20.07;;
20454;SDS011;10386;54.314;10.022;2022-08-19T04:22:00;57.97;;;19.80;;
20454;SDS011;10386;54.314;10.022;2022-08-19T04:24:27;47.60;;;20.07;;
20454;SDS011;10386;54.314;10.022;2022-08-19T04:26:53;48.83;;;18.03;;
20454;SDS011;10386;54.314;10.022;2022-08-19T04:29:22;49.60;;;20.50;;
20454;SDS011;10386;54.314;10.022;2022-08-19T04:31:52;48.33;;;20.02;;
20454;SDS011;10386;54.314;10.022;2022-08-19T04:36:58;42.80;;;18.42;;
20454;SDS011;10386;54.314;10.022;2022-08-19T04:39:27;49.13;;;18.53;;
20454;SDS011;10386;54.314;10.022;2022-08-19T04:42:18;53.93;;;18.57;;
20454;SDS011;10386;54.314;10.022;2022-08-19T04:45:07;58.10;;;19.83;;
20454;SDS011;10386;54.314;10.022;2022-08-19T04:47:38;45.38;;;18.80;;
20454;SDS011;10386;54.314;10.022;2022-08-19T04:50:25;58.80;;;20.03;;
20454;SDS011;10386;54.314;10.022;2022-08-19T04:52:53;48.33;;;20.02;;
20454;SDS011;10386;54.314;10.022;2022-08-19T04:55:22;51.60;;;20.15;;
20454;SDS011;10386;54.314;10.022;2022-08-19T04:57:52;52.83;;;19.10;;
20454;SDS011;10386;54.314;10.022;2022-08-19T05:00:19;57.10;;;20.03;;
20454;SDS011;10386;54.314;10.022;2022-08-19T05:02:46;53.10;;;20.17;;
20454;SDS011;10386;54.314;10.022;2022-08-19T05:05:15;54.80;;;19.60;;
20454;SDS011;10386;54.314;10.022;2022-08-19T05:07:43;53.67;;;19.48;;
20454;SDS011;10386;54.314;10.022;2022-08-19T05:10:10;63.30;;;21.30;;
20454;SDS011;10386;54.314;10.022;2022-08-19T05:12:38;47.22;;;20.15;;
20454;SDS011;10386;54.314;10.022;2022-08-19T05:15:05;57.40;;;20.40;;
20454;SDS011;10386;54.314;10.022;2022-08-19T05:17:34;55.27;;;21.13;;
20454;SDS011;10386;54.314;10.022;2022-08-19T05:20:06;54.23;;;21.23;;
20454;SDS011;10386;54.314;10.022;2022-08-19T05:22:52;61.17;;;21.93;;
20454;SDS011;10386;54.314;10.022;2022-08-19T05:25:20;53.00;;;19.83;;
20454;SDS011;10386;54.314;10.022;2022-08-19T05:27:48;69.57;;;21.27;;
20454;SDS011;10386;54.314;10.022;2022-08-19T05:30:15;60.33;;;21.23;;
20454;SDS011;10386;54.314;10.022;2022-08-19T05:32:43;78.37;;;23.27;;
20454;SDS011;10386;54.314;10.022;2022-08-19T05:35:14;62.93;;;20.90;;
20454;SDS011;10386;54.314;10.022;2022-08-19T05:37:41;78.33;;;23.97;;
20454;SDS011;10386;54.314;10.022;2022-08-19T05:40:08;77.80;;;22.30;;
20454;SDS011;10386;54.314;10.022;2022-08-19T05:42:36;61.17;;;21.10;;
20454;SDS011;10386;54.314;10.022;2022-08-19T05:45:03;67.33;;;21.67;;
20454;SDS011;10386;54.314;10.022;2022-08-19T05:47:31;64.57;;;22.27;;
20454;SDS011;10386;54.314;10.022;2022-08-19T05:49:58;65.07;;;21.80;;
20454;SDS011;10386;54.314;10.022;2022-08-19T05:52:30;53.53;;;21.10;;
20454;SDS011;10386;54.314;10.022;2022-08-19T05:54:58;61.83;;;20.53;;
20454;SDS011;10386;54.314;10.022;2022-08-19T05:57:25;54.00;;;21.00;;
20454;SDS011;10386;54.314;10.022;2022-08-19T05:59:55;65.93;;;22.50;;
20454;SDS011;10386;54.314;10.022;2022-08-19T06:02:29;52.13;;;20.73;;
20454;SDS011;10386;54.314;10.022;2022-08-19T06:04:57;62.80;;;22.47;;
20454;SDS011;10386;54.314;10.022;2022-08-19T06:07:24;63.03;;;20.70;;
20454;SDS011;10386;54.314;10.022;2022-08-19T06:09:51;49.77;;;20.43;;
20454;SDS011;10386;54.314;10.022;2022-08-19T06:12:30;59.37;;;21.53;;
20454;SDS011;10386;54.314;10.022;2022-08-19T06:15:02;56.70;;;21.27;;
20454;SDS011;10386;54.314;10.022;2022-08-19T06:17:33;54.93;;;20.27;;
20454;SDS011;10386;54.314;10.022;2022-08-19T06:20:05;61.07;;;21.40;;
20454;SDS011;10386;54.314;10.022;2022-08-19T06:22:38;66.67;;;22.93;;
20454;SDS011;10386;54.314;10.022;2022-08-19T06:25:06;49.53;;;21.23;;
20454;SDS011;10386;54.314;10.022;2022-08-19T06:27:35;58.73;;;21.23;;
20454;SDS011;10386;54.314;10.022;2022-08-19T06:30:13;57.90;;;20.50;;
20454;SDS011;10386;54.314;10.022;2022-08-19T06:32:41;55.63;;;22.10;;
20454;SDS011;10386;54.314;10.022;2022-08-19T06:35:08;60.03;;;23.00;;
20454;SDS011;10386;54.314;10.022;2022-08-19T06:37:35;57.30;;;21.50;;
20454;SDS011;10386;54.314;10.022;2022-08-19T06:40:06;51.47;;;21.67;;
20454;SDS011;10386;54.314;10.022;2022-08-19T06:42:34;60.00;;;22.00;;
20454;SDS011;10386;54.314;10.022;2022-08-19T06:45:01;63.03;;;22.57;;
20454;SDS011;10386;54.314;10.022;2022-08-19T06:47:34;56.10;;;22.20;;
20454;SDS011;10386;54.314;10.022;2022-08-19T06:50:01;49.53;;;20.73;;
20454;SDS011;10386;54.314;10.022;2022-08-19T06:52:31;59.30;;;22.10;;
20454;SDS011;10386;54.314;10.022;2022-08-19T06:55:02;57.60;;;23.13;;
20454;SDS011;10386;54.314;10.022;2022-08-19T06:57:32;60.97;;;23.23;;
20454;SDS011;10386;54.314;10.022;2022-08-19T06:59:59;62.30;;;23.50;;
20454;SDS011;10386;54.314;10.022;2022-08-19T07:02:27;69.30;;;22.57;;
20454;SDS011;10386;54.314;10.022;2022-08-19T07:04:54;61.97;;;22.90;;
20454;SDS011;10386;54.314;10.022;2022-08-19T07:07:24;75.53;;;23.17;;
20454;SDS011;10386;54.314;10.022;2022-08-19T07:09:51;67.33;;;24.73;;
20454;SDS011;10386;54.314;10.022;2022-08-19T07:12:30;68.17;;;22.60;;
20454;SDS011;10386;54.314;10.022;2022-08-19T07:15:06;66.23;;;24.50;;
20454;SDS011;10386;54.314;10.022;2022-08-19T07:17:35;73.32;;;23.70;;
20454;SDS011;10386;54.314;10.022;2022-08-19T07:20:05;75.77;;;24.60;;
20454;SDS011;10386;54.314;10.022;2022-08-19T07:22:35;69.10;;;23.43;;
20454;SDS011;10386;54.314;10.022;2022-08-19T07:25:05;67.10;;;23.13;;
20454;SDS011;10386;54.314;10.022;2022-08-19T07:27:34;65.70;;;23.40;;
20454;SDS011;10386;54.314;10.022;2022-08-19T07:30:02;61.43;;;22.33;;
20454;SDS011;10386;54.314;10.022;2022-08-19T07:32:29;70.28;;;23.55;;
20454;SDS011;10386;54.314;10.022;2022-08-19T07:34:58;61.87;;;22.13;;
20454;SDS011;10386;54.314;10.022;2022-08-19T07:37:27;62.43;;;24.03;;
20454;SDS011;10386;54.314;10.022;2022-08-19T07:39:59;66.17;;;24.57;;
20454;SDS011;10386;54.314;10.022;2022-08-19T07:42:27;71.63;;;24.63;;
20454;SDS011;10386;54.314;10.022;2022-08-19T07:44:56;65.57;;;22.67;;
20454;SDS011;10386;54.314;10.022;2022-08-19T07:47:24;60.90;;;22.60;;
20454;SDS011;10386;54.314;10.022;2022-08-19T07:50:11;61.50;;;23.15;;
20454;SDS011;10386;54.314;10.022;2022-08-19T07:52:38;68.63;;;23.67;;
20454;SDS011;10386;54.314;10.022;2022-08-19T07:55:07;58.97;;;23.20;;
20454;SDS011;10386;54.314;10.022;2022-08-19T07:57:55;63.10;;;23.03;;
20454;SDS011;10386;54.314;10.022;2022-08-19T08:00:22;68.03;;;25.30;;
20454;SDS011;10386;54.314;10.022;2022-08-19T08:02:50;60.23;;;23.50;;
20454;SDS011;10386;54.314;10.022;2022-08-19T08:05:20;61.80;;;25.13;;
20454;SDS011;10386;54.314;10.022;2022-08-19T08:08:10;60.63;;;23.10;;
20454;SDS011;10386;54.314;10.022;2022-08-19T08:11:10;67.63;;;25.00;;
20454;SDS011;10386;54.314;10.022;2022-08-19T08:13:41;56.70;;;24.00;;
20454;SDS011;10386;54.314;10.022;2022-08-19T08:16:08;53.72;;;24.23;;
20454;SDS011;10386;54.314;10.022;2022-08-19T08:18:39;47.23;;;23.13;;
20454;SDS011;10386;54.314;10.022;2022-08-19T08:21:16;54.13;;;23.37;;
20454;SDS011;10386;54.314;10.022;2022-08-19T08:23:43;53.90;;;24.40;;
20454;SDS011;10386;54.314;10.022;2022-08-19T08:26:10;49.60;;;23.20;;
20454;SDS011;10386;54.314;10.022;2022-08-19T08:28:41;52.67;;;22.87;;
20454;SDS011;10386;54.314;10.022;2022-08-19T08:31:13;47.53;;;21.67;;
20454;SDS011;10386;54.314;10.022;2022-08-19T08:33:40;45.90;;;21.90;;
20454;SDS011;10386;54.314;10.022;2022-08-19T08:36:08;44.77;;;21.03;;
20454;SDS011;10386;54.314;10.022;2022-08-19T08:38:36;44.73;;;20.43;;
20454;SDS011;10386;54.314;10.022;2022-08-19T08:43:46;40.50;;;21.52;;
20454;SDS011;10386;54.314;10.022;2022-08-19T08:46:16;41.78;;;20.38;;
20454;SDS011;10386;54.314;10.022;2022-08-19T08:51:37;39.95;;;21.27;;
20454;SDS011;10386;54.314;10.022;2022-08-19T08:54:07;39.67;;;20.42;;
20454;SDS011;10386;54.314;10.022;2022-08-19T08:56:38;44.63;;;21.10;;
20454;SDS011;10386;54.314;10.022;2022-08-19T09:02:18;45.60;;;22.20;;
20454;SDS011;10386;54.314;10.022;2022-08-19T09:04:45;51.85;;;23.00;;
20454;SDS011;10386;54.314;10.022;2022-08-19T09:10:10;38.53;;;20.88;;
20454;SDS011;10386;54.314;10.022;2022-08-19T09:15:36;39.83;;;20.13;;
20454;SDS011;10386;54.314;10.022;2022-08-19T09:18:12;37.75;;;20.33;;
20454;SDS011;10386;54.314;10.022;2022-08-19T09:20:45;37.35;;;20.40;;
20454;SDS011;10386;54.314;10.022;2022-08-19T09:23:16;40.20;;;20.92;;
20454;SDS011;10386;54.314;10.022;2022-08-19T09:25:42;47.65;;;21.52;;
20454;SDS011;10386;54.314;10.022;2022-08-19T09:28:09;46.25;;;21.60;;
20454;SDS011;10386;54.314;10.022;2022-08-19T09:30:48;52.45;;;22.73;;
20454;SDS011;10386;54.314;10.022;2022-08-19T09:33:18;42.95;;;21.77;;
20454;SDS011;10386;54.314;10.022;2022-08-19T09:35:45;44.08;;;23.27;;
20454;SDS011;10386;54.314;10.022;2022-08-19T09:38:19;50.22;;;23.17;;
20454;SDS011;10386;54.314;10.022;2022-08-19T09:40:48;49.17;;;24.63;;
20454;SDS011;10386;54.314;10.022;2022-08-19T09:43:16;51.40;;;25.27;;
20454;SDS011;10386;54.314;10.022;2022-08-19T09:46:04;53.53;;;25.70;;
20454;SDS011;10386;54.314;10.022;2022-08-19T09:48:33;56.55;;;27.02;;
20454;SDS011;10386;54.314;10.022;2022-08-19T09:51:04;55.60;;;25.57;;
20454;SDS011;10386;54.314;10.022;2022-08-19T09:53:37;55.53;;;25.40;;
20454;SDS011;10386;54.314;10.022;2022-08-19T09:56:05;57.63;;;26.05;;
20454;SDS011;10386;54.314;10.022;2022-08-19T09:58:34;64.88;;;28.13;;
20454;SDS011;10386;54.314;10.022;2022-08-19T10:01:03;60.10;;;26.80;;
20454;SDS011;10386;54.314;10.022;2022-08-19T10:03:32;53.03;;;26.02;;
20454;SDS011;10386;54.314;10.022;2022-08-19T10:06:01;53.92;;;26.25;;
20454;SDS011;10386;54.314;10.022;2022-08-19T10:08:31;58.47;;;26.52;;
20454;SDS011;10386;54.314;10.022;2022-08-19T10:11:01;58.78;;;25.08;;
20454;SDS011;10386;54.314;10.022;2022-08-19T10:13:50;52.95;;;24.92;;
20454;SDS011;10386;54.314;10.022;2022-08-19T10:16:20;55.13;;;25.02;;
20454;SDS011;10386;54.314;10.022;2022-08-19T10:18:56;44.50;;;23.20;;
20454;SDS011;10386;54.314;10.022;2022-08-19T10:21:29;59.28;;;24.17;;
20454;SDS011;10386;54.314;10.022;2022-08-19T10:23:59;56.78;;;23.63;;
20454;SDS011;10386;54.314;10.022;2022-08-19T10:26:31;52.53;;;23.67;;
20454;SDS011;10386;54.314;10.022;2022-08-19T10:29:02;55.88;;;23.60;;
20454;SDS011;10386;54.314;10.022;2022-08-19T10:31:31;51.13;;;23.45;;
20454;SDS011;10386;54.314;10.022;2022-08-19T10:34:19;48.17;;;23.45;;
20454;SDS011;10386;54.314;10.022;2022-08-19T10:36:53;51.42;;;23.50;;
20454;SDS011;10386;54.314;10.022;2022-08-19T10:39:27;53.53;;;24.50;;
20454;SDS011;10386;54.314;10.022;2022-08-19T10:42:09;51.10;;;23.05;;
20454;SDS011;10386;54.314;10.022;2022-08-19T10:44:39;51.08;;;22.85;;
20454;SDS011;10386;54.314;10.022;2022-08-19T10:47:07;51.35;;;22.33;;
20454;SDS011;10386;54.314;10.022;2022-08-19T10:49:50;52.83;;;24.15;;
20454;SDS011;10386;54.314;10.022;2022-08-19T10:52:38;50.90;;;22.70;;
20454;SDS011;10386;54.314;10.022;2022-08-19T10:55:20;48.10;;;22.63;;
20454;SDS011;10386;54.314;10.022;2022-08-19T10:58:11;52.30;;;22.30;;
20454;SDS011;10386;54.314;10.022;2022-08-19T11:00:43;46.55;;;22.55;;
20454;SDS011;10386;54.314;10.022;2022-08-19T11:03:22;46.65;;;20.65;;
20454;SDS011;10386;54.314;10.022;2022-08-19T11:05:58;47.58;;;21.58;;
20454;SDS011;10386;54.314;10.022;2022-08-19T11:08:26;45.10;;;20.67;;
20454;SDS011;10386;54.314;10.022;2022-08-19T11:10:54;45.90;;;22.83;;
20454;SDS011;10386;54.314;10.022;2022-08-19T11:13:23;46.30;;;21.85;;
20454;SDS011;10386;54.314;10.022;2022-08-19T11:15:58;45.40;;;21.17;;
20454;SDS011;10386;54.314;10.022;2022-08-19T11:18:33;52.10;;;20.63;;
20454;SDS011;10386;54.314;10.022;2022-08-19T11:23:39;50.83;;;22.10;;
20454;SDS011;10386;54.314;10.022;2022-08-19T11:26:06;47.97;;;23.05;;
20454;SDS011;10386;54.314;10.022;2022-08-19T11:28:33;47.70;;;21.95;;
20454;SDS011;10386;54.314;10.022;2022-08-19T11:31:00;52.35;;;22.60;;
20454;SDS011;10386;54.314;10.022;2022-08-19T11:33:27;47.40;;;22.10;;
20454;SDS011;10386;54.314;10.022;2022-08-19T11:35:54;50.30;;;21.80;;
20454;SDS011;10386;54.314;10.022;2022-08-19T11:38:27;51.10;;;20.50;;
20454;SDS011;10386;54.314;10.022;2022-08-19T11:41:00;48.10;;;21.73;;
20454;SDS011;10386;54.314;10.022;2022-08-19T11:43:29;45.80;;;21.17;;
20454;SDS011;10386;54.314;10.022;2022-08-19T11:46:06;52.33;;;22.77;;
20454;SDS011;10386;54.314;10.022;2022-08-19T11:48:36;55.95;;;22.90;;
20454;SDS011;10386;54.314;10.022;2022-08-19T11:51:08;51.55;;;24.15;;
20454;SDS011;10386;54.314;10.022;2022-08-19T11:53:40;50.28;;;23.00;;
20454;SDS011;10386;54.314;10.022;2022-08-19T11:56:07;48.08;;;22.10;;
20454;SDS011;10386;54.314;10.022;2022-08-19T11:58:35;42.72;;;21.45;;
20454;SDS011;10386;54.314;10.022;2022-08-19T12:01:09;49.53;;;22.88;;
20454;SDS011;10386;54.314;10.022;2022-08-19T12:03:43;50.08;;;22.85;;
20454;SDS011;10386;54.314;10.022;2022-08-19T12:06:12;56.97;;;24.33;;
20454;SDS011;10386;54.314;10.022;2022-08-19T12:08:45;59.20;;;23.52;;
20454;SDS011;10386;54.314;10.022;2022-08-19T12:11:13;53.80;;;24.23;;
20454;SDS011;10386;54.314;10.022;2022-08-19T12:13:40;51.38;;;23.10;;
20454;SDS011;10386;54.314;10.022;2022-08-19T12:16:14;57.92;;;24.10;;
20454;SDS011;10386;54.314;10.022;2022-08-19T12:18:43;52.63;;;22.60;;
20454;SDS011;10386;54.314;10.022;2022-08-19T12:21:13;49.42;;;22.98;;
20454;SDS011;10386;54.314;10.022;2022-08-19T12:23:41;50.78;;;22.48;;
20454;SDS011;10386;54.314;10.022;2022-08-19T12:26:09;53.17;;;23.08;;
20454;SDS011;10386;54.314;10.022;2022-08-19T12:28:37;57.40;;;23.50;;
20454;SDS011;10386;54.314;10.022;2022-08-19T12:31:05;52.05;;;22.52;;
20454;SDS011;10386;54.314;10.022;2022-08-19T12:33:32;47.45;;;22.63;;
20454;SDS011;10386;54.314;10.022;2022-08-19T12:36:03;50.13;;;21.05;;
20454;SDS011;10386;54.314;10.022;2022-08-19T12:38:32;46.33;;;21.02;;
20454;SDS011;10386;54.314;10.022;2022-08-19T12:41:00;42.10;;;19.77;;
20454;SDS011;10386;54.314;10.022;2022-08-19T12:43:33;50.15;;;21.30;;
20454;SDS011;10386;54.314;10.022;2022-08-19T12:46:02;49.05;;;21.88;;
20454;SDS011;10386;54.314;10.022;2022-08-19T12:48:31;41.30;;;20.25;;
20454;SDS011;10386;54.314;10.022;2022-08-19T12:51:00;48.65;;;21.58;;
20454;SDS011;10386;54.314;10.022;2022-08-19T12:53:33;43.63;;;19.92;;
20454;SDS011;10386;54.314;10.022;2022-08-19T12:56:05;42.75;;;20.65;;
20454;SDS011;10386;54.314;10.022;2022-08-19T12:58:34;45.45;;;20.55;;
20454;SDS011;10386;54.314;10.022;2022-08-19T13:01:08;49.58;;;20.95;;
20454;SDS011;10386;54.314;10.022;2022-08-19T13:03:37;49.85;;;21.48;;
20454;SDS011;10386;54.314;10.022;2022-08-19T13:06:06;44.63;;;20.02;;
20454;SDS011;10386;54.314;10.022;2022-08-19T13:08:34;47.78;;;20.13;;
20454;SDS011;10386;54.314;10.022;2022-08-19T13:11:12;44.97;;;21.25;;
20454;SDS011;10386;54.314;10.022;2022-08-19T13:13:44;50.63;;;22.08;;
20454;SDS011;10386;54.314;10.022;2022-08-19T13:16:14;47.92;;;21.42;;
20454;SDS011;10386;54.314;10.022;2022-08-19T13:18:42;43.50;;;20.95;;
20454;SDS011;10386;54.314;10.022;2022-08-19T13:21:11;43.05;;;19.60;;
20454;SDS011;10386;54.314;10.022;2022-08-19T13:23:39;45.15;;;20.92;;
20454;SDS011;10386;54.314;10.022;2022-08-19T13:26:07;42.92;;;19.65;;
20454;SDS011;10386;54.314;10.022;2022-08-19T13:28:36;44.72;;;19.92;;
20454;SDS011;10386;54.314;10.022;2022-08-19T13:31:23;39.33;;;18.00;;
20454;SDS011;10386;54.314;10.022;2022-08-19T13:34:10;36.63;;;18.20;;
20454;SDS011;10386;54.314;10.022;2022-08-19T13:36:37;41.40;;;19.17;;
20454;SDS011;10386;54.314;10.022;2022-08-19T13:39:05;38.63;;;19.20;;
20454;SDS011;10386;54.314;10.022;2022-08-19T13:41:34;44.88;;;20.60;;
20454;SDS011;10386;54.314;10.022;2022-08-19T13:44:02;47.40;;;20.38;;
20454;SDS011;10386;54.314;10.022;2022-08-19T13:46:30;47.38;;;21.42;;
20454;SDS011;10386;54.314;10.022;2022-08-19T13:48:57;47.67;;;22.38;;
20454;SDS011;10386;54.314;10.022;2022-08-19T13:51:24;41.58;;;20.77;;
20454;SDS011;10386;54.314;10.022;2022-08-19T13:53:50;50.58;;;21.67;;
20454;SDS011;10386;54.314;10.022;2022-08-19T13:56:18;45.38;;;21.42;;
20454;SDS011;10386;54.314;10.022;2022-08-19T13:58:52;46.75;;;21.30;;
20454;SDS011;10386;54.314;10.022;2022-08-19T14:01:20;41.40;;;20.73;;
20454;SDS011;10386;54.314;10.022;2022-08-19T14:03:50;40.20;;;19.83;;
20454;SDS011;10386;54.314;10.022;2022-08-19T14:06:17;41.97;;;20.08;;
20454;SDS011;10386;54.314;10.022;2022-08-19T14:08:43;38.67;;;19.13;;
20454;SDS011;10386;54.314;10.022;2022-08-19T14:11:11;38.25;;;19.23;;
20454;SDS011;10386;54.314;10.022;2022-08-19T14:13:38;33.75;;;18.38;;
20454;SDS011;10386;54.314;10.022;2022-08-19T14:16:06;37.17;;;19.65;;
20454;SDS011;10386;54.314;10.022;2022-08-19T14:18:37;41.40;;;18.05;;
20454;SDS011;10386;54.314;10.022;2022-08-19T14:21:05;32.17;;;18.40;;
20454;SDS011;10386;54.314;10.022;2022-08-19T14:23:33;34.10;;;17.90;;
20454;SDS011;10386;54.314;10.022;2022-08-19T14:26:04;38.83;;;19.95;;
20454;SDS011;10386;54.314;10.022;2022-08-19T14:28:33;36.85;;;19.23;;
20454;SDS011;10386;54.314;10.022;2022-08-19T14:31:00;33.75;;;18.02;;
20454;SDS011;10386;54.314;10.022;2022-08-19T14:33:27;35.00;;;18.50;;
20454;SDS011;10386;54.314;10.022;2022-08-19T14:35:55;34.72;;;18.70;;
20454;SDS011;10386;54.314;10.022;2022-08-19T14:38:25;34.63;;;18.52;;
20454;SDS011;10386;54.314;10.022;2022-08-19T14:41:07;29.80;;;16.77;;
20454;SDS011;10386;54.314;10.022;2022-08-19T14:43:47;34.38;;;18.20;;
20454;SDS011;10386;54.314;10.022;2022-08-19T14:46:16;31.98;;;17.92;;
20454;SDS011;10386;54.314;10.022;2022-08-19T14:48:50;28.48;;;16.75;;
20454;SDS011;10386;54.314;10.022;2022-08-19T14:51:18;35.55;;;16.98;;